Aviation Digital Data Service (ADDS)

Output produced by METARs form (1032 UTC 07 December 2016)
found at http://aviationweather.gov/adds/metars/
 
KLAS 070848Z 0709/0806 02007KT P6SM FEW250 
     FM071700 36012G18KT P6SM BKN250 
     FM072200 04006KT P6SM BKN250